sensor_id;sensor_type;location;lat;lon;timestamp;P1;durP1;ratioP1;P2;durP2;ratioP2
4462;SDS011;2244;50.200;8.220;2024-03-08T00:02:02;56.17;;;20.50;;
4462;SDS011;2244;50.200;8.220;2024-03-08T00:04:29;43.73;;;19.43;;
4462;SDS011;2244;50.200;8.220;2024-03-08T00:06:56;47.10;;;19.57;;
4462;SDS011;2244;50.200;8.220;2024-03-08T00:09:24;44.63;;;19.27;;
4462;SDS011;2244;50.200;8.220;2024-03-08T00:11:53;43.67;;;19.40;;
4462;SDS011;2244;50.200;8.220;2024-03-08T00:14:21;44.40;;;18.57;;
4462;SDS011;2244;50.200;8.220;2024-03-08T00:16:48;44.80;;;20.03;;
4462;SDS011;2244;50.200;8.220;2024-03-08T00:19:16;46.23;;;19.90;;
4462;SDS011;2244;50.200;8.220;2024-03-08T00:21:44;43.87;;;18.03;;
4462;SDS011;2244;50.200;8.220;2024-03-08T00:24:11;48.83;;;18.90;;
4462;SDS011;2244;50.200;8.220;2024-03-08T00:26:38;41.53;;;17.50;;
4462;SDS011;2244;50.200;8.220;2024-03-08T00:29:06;42.60;;;18.80;;
4462;SDS011;2244;50.200;8.220;2024-03-08T00:31:34;46.53;;;19.70;;
4462;SDS011;2244;50.200;8.220;2024-03-08T00:34:02;44.33;;;17.87;;
4462;SDS011;2244;50.200;8.220;2024-03-08T00:36:29;45.47;;;19.80;;
4462;SDS011;2244;50.200;8.220;2024-03-08T00:38:57;44.83;;;17.90;;
4462;SDS011;2244;50.200;8.220;2024-03-08T00:41:26;42.80;;;18.43;;
4462;SDS011;2244;50.200;8.220;2024-03-08T00:43:53;42.90;;;18.80;;
4462;SDS011;2244;50.200;8.220;2024-03-08T00:46:21;41.30;;;17.87;;
4462;SDS011;2244;50.200;8.220;2024-03-08T00:48:48;41.20;;;18.60;;
4462;SDS011;2244;50.200;8.220;2024-03-08T00:51:16;41.53;;;18.03;;
4462;SDS011;2244;50.200;8.220;2024-03-08T00:53:43;40.30;;;17.07;;
4462;SDS011;2244;50.200;8.220;2024-03-08T00:56:11;41.03;;;18.77;;
4462;SDS011;2244;50.200;8.220;2024-03-08T00:58:38;46.80;;;19.50;;
4462;SDS011;2244;50.200;8.220;2024-03-08T01:01:06;47.53;;;19.40;;
4462;SDS011;2244;50.200;8.220;2024-03-08T01:03:34;46.60;;;19.23;;
4462;SDS011;2244;50.200;8.220;2024-03-08T01:06:01;43.27;;;17.80;;
4462;SDS011;2244;50.200;8.220;2024-03-08T01:08:29;42.10;;;18.00;;
4462;SDS011;2244;50.200;8.220;2024-03-08T01:10:56;43.40;;;18.83;;
4462;SDS011;2244;50.200;8.220;2024-03-08T01:13:24;43.83;;;18.80;;
4462;SDS011;2244;50.200;8.220;2024-03-08T01:15:51;46.83;;;19.20;;
4462;SDS011;2244;50.200;8.220;2024-03-08T01:18:19;43.37;;;19.27;;
4462;SDS011;2244;50.200;8.220;2024-03-08T01:20:46;43.80;;;18.70;;
4462;SDS011;2244;50.200;8.220;2024-03-08T01:23:14;43.10;;;19.00;;
4462;SDS011;2244;50.200;8.220;2024-03-08T01:25:41;53.50;;;19.87;;
4462;SDS011;2244;50.200;8.220;2024-03-08T01:28:10;45.53;;;19.53;;
4462;SDS011;2244;50.200;8.220;2024-03-08T01:30:39;45.27;;;19.80;;
4462;SDS011;2244;50.200;8.220;2024-03-08T01:33:08;44.07;;;18.90;;
4462;SDS011;2244;50.200;8.220;2024-03-08T01:35:35;43.17;;;18.90;;
4462;SDS011;2244;50.200;8.220;2024-03-08T01:38:03;50.50;;;18.73;;
4462;SDS011;2244;50.200;8.220;2024-03-08T01:40:33;44.77;;;19.40;;
4462;SDS011;2244;50.200;8.220;2024-03-08T01:43:16;48.33;;;20.50;;
4462;SDS011;2244;50.200;8.220;2024-03-08T01:45:30;44.60;;;19.27;;
4462;SDS011;2244;50.200;8.220;2024-03-08T01:47:59;45.33;;;20.73;;
4462;SDS011;2244;50.200;8.220;2024-03-08T01:50:26;42.27;;;18.30;;
4462;SDS011;2244;50.200;8.220;2024-03-08T01:52:54;45.83;;;19.93;;
4462;SDS011;2244;50.200;8.220;2024-03-08T01:55:23;41.63;;;17.63;;
4462;SDS011;2244;50.200;8.220;2024-03-08T01:57:53;44.30;;;19.20;;
4462;SDS011;2244;50.200;8.220;2024-03-08T02:00:21;48.17;;;20.07;;
4462;SDS011;2244;50.200;8.220;2024-03-08T02:02:48;43.80;;;18.93;;
4462;SDS011;2244;50.200;8.220;2024-03-08T02:05:17;45.83;;;19.60;;
4462;SDS011;2244;50.200;8.220;2024-03-08T02:07:44;49.53;;;18.90;;
4462;SDS011;2244;50.200;8.220;2024-03-08T02:10:17;45.63;;;19.57;;
4462;SDS011;2244;50.200;8.220;2024-03-08T02:12:46;44.40;;;19.60;;
4462;SDS011;2244;50.200;8.220;2024-03-08T02:15:14;43.43;;;19.70;;
4462;SDS011;2244;50.200;8.220;2024-03-08T02:17:41;44.40;;;19.57;;
4462;SDS011;2244;50.200;8.220;2024-03-08T02:20:09;43.50;;;18.43;;
4462;SDS011;2244;50.200;8.220;2024-03-08T02:22:39;43.73;;;18.30;;
4462;SDS011;2244;50.200;8.220;2024-03-08T02:25:07;43.57;;;19.57;;
4462;SDS011;2244;50.200;8.220;2024-03-08T02:27:35;43.57;;;19.50;;
4462;SDS011;2244;50.200;8.220;2024-03-08T02:30:02;45.03;;;19.60;;
4462;SDS011;2244;50.200;8.220;2024-03-08T02:32:30;49.03;;;19.23;;
4462;SDS011;2244;50.200;8.220;2024-03-08T02:34:59;45.90;;;19.40;;
4462;SDS011;2244;50.200;8.220;2024-03-08T02:37:27;45.70;;;20.00;;
4462;SDS011;2244;50.200;8.220;2024-03-08T02:39:55;42.77;;;19.60;;
4462;SDS011;2244;50.200;8.220;2024-03-08T02:42:22;46.90;;;19.70;;
4462;SDS011;2244;50.200;8.220;2024-03-08T02:44:49;41.50;;;18.70;;
4462;SDS011;2244;50.200;8.220;2024-03-08T02:47:18;45.03;;;19.10;;
4462;SDS011;2244;50.200;8.220;2024-03-08T02:49:47;43.90;;;19.33;;
4462;SDS011;2244;50.200;8.220;2024-03-08T02:52:16;43.27;;;18.73;;
4462;SDS011;2244;50.200;8.220;2024-03-08T02:54:44;47.70;;;19.80;;
4462;SDS011;2244;50.200;8.220;2024-03-08T02:57:13;49.03;;;20.90;;
4462;SDS011;2244;50.200;8.220;2024-03-08T02:59:41;48.40;;;20.07;;
4462;SDS011;2244;50.200;8.220;2024-03-08T03:02:09;49.17;;;21.60;;
4462;SDS011;2244;50.200;8.220;2024-03-08T03:04:39;49.30;;;21.23;;
4462;SDS011;2244;50.200;8.220;2024-03-08T03:07:05;46.17;;;20.43;;
4462;SDS011;2244;50.200;8.220;2024-03-08T03:09:33;49.13;;;22.00;;
4462;SDS011;2244;50.200;8.220;2024-03-08T03:12:00;46.33;;;21.30;;
4462;SDS011;2244;50.200;8.220;2024-03-08T03:14:28;50.87;;;21.83;;
4462;SDS011;2244;50.200;8.220;2024-03-08T03:16:56;48.80;;;21.50;;
4462;SDS011;2244;50.200;8.220;2024-03-08T03:19:23;47.90;;;21.30;;
4462;SDS011;2244;50.200;8.220;2024-03-08T03:21:51;45.57;;;21.00;;
4462;SDS011;2244;50.200;8.220;2024-03-08T03:24:19;47.20;;;20.17;;
4462;SDS011;2244;50.200;8.220;2024-03-08T03:26:47;46.93;;;21.23;;
4462;SDS011;2244;50.200;8.220;2024-03-08T03:29:16;46.50;;;20.93;;
4462;SDS011;2244;50.200;8.220;2024-03-08T03:31:43;48.90;;;22.23;;
4462;SDS011;2244;50.200;8.220;2024-03-08T03:34:13;46.77;;;21.53;;
4462;SDS011;2244;50.200;8.220;2024-03-08T03:36:42;50.60;;;20.87;;
4462;SDS011;2244;50.200;8.220;2024-03-08T03:39:11;48.97;;;22.23;;
4462;SDS011;2244;50.200;8.220;2024-03-08T03:41:40;46.80;;;21.10;;
4462;SDS011;2244;50.200;8.220;2024-03-08T03:44:07;47.07;;;20.73;;
4462;SDS011;2244;50.200;8.220;2024-03-08T03:46:36;47.13;;;22.00;;
4462;SDS011;2244;50.200;8.220;2024-03-08T03:49:03;50.33;;;22.90;;
4462;SDS011;2244;50.200;8.220;2024-03-08T03:51:31;52.53;;;24.10;;
4462;SDS011;2244;50.200;8.220;2024-03-08T03:53:58;46.80;;;21.67;;
4462;SDS011;2244;50.200;8.220;2024-03-08T03:56:26;46.90;;;21.63;;
4462;SDS011;2244;50.200;8.220;2024-03-08T03:58:53;47.93;;;22.63;;
4462;SDS011;2244;50.200;8.220;2024-03-08T04:01:21;46.87;;;22.03;;
4462;SDS011;2244;50.200;8.220;2024-03-08T04:03:48;49.93;;;23.67;;
4462;SDS011;2244;50.200;8.220;2024-03-08T04:06:16;52.07;;;22.37;;
4462;SDS011;2244;50.200;8.220;2024-03-08T04:08:43;50.03;;;22.43;;
4462;SDS011;2244;50.200;8.220;2024-03-08T04:11:11;57.13;;;21.33;;
4462;SDS011;2244;50.200;8.220;2024-03-08T04:13:38;48.27;;;21.90;;
4462;SDS011;2244;50.200;8.220;2024-03-08T04:16:05;49.37;;;22.43;;
4462;SDS011;2244;50.200;8.220;2024-03-08T04:18:34;49.80;;;22.03;;
4462;SDS011;2244;50.200;8.220;2024-03-08T04:21:02;52.30;;;22.13;;
4462;SDS011;2244;50.200;8.220;2024-03-08T04:23:29;47.57;;;22.50;;
4462;SDS011;2244;50.200;8.220;2024-03-08T04:25:57;50.33;;;21.77;;
4462;SDS011;2244;50.200;8.220;2024-03-08T04:28:25;53.33;;;24.90;;
4462;SDS011;2244;50.200;8.220;2024-03-08T04:30:52;51.17;;;23.93;;
4462;SDS011;2244;50.200;8.220;2024-03-08T04:33:21;51.77;;;23.27;;
4462;SDS011;2244;50.200;8.220;2024-03-08T04:35:49;53.07;;;23.57;;
4462;SDS011;2244;50.200;8.220;2024-03-08T04:38:17;50.40;;;24.17;;
4462;SDS011;2244;50.200;8.220;2024-03-08T04:40:45;50.83;;;22.80;;
4462;SDS011;2244;50.200;8.220;2024-03-08T04:43:13;46.97;;;23.37;;
4462;SDS011;2244;50.200;8.220;2024-03-08T04:45:41;49.30;;;22.30;;
4462;SDS011;2244;50.200;8.220;2024-03-08T04:48:15;51.40;;;22.93;;
4462;SDS011;2244;50.200;8.220;2024-03-08T04:50:42;51.07;;;23.73;;
4462;SDS011;2244;50.200;8.220;2024-03-08T04:53:11;52.30;;;24.20;;
4462;SDS011;2244;50.200;8.220;2024-03-08T04:55:39;53.40;;;23.20;;
4462;SDS011;2244;50.200;8.220;2024-03-08T04:58:06;50.40;;;24.90;;
4462;SDS011;2244;50.200;8.220;2024-03-08T05:00:34;50.03;;;24.47;;
4462;SDS011;2244;50.200;8.220;2024-03-08T05:03:01;50.90;;;23.60;;
4462;SDS011;2244;50.200;8.220;2024-03-08T05:05:29;52.37;;;22.40;;
4462;SDS011;2244;50.200;8.220;2024-03-08T05:07:56;49.93;;;22.80;;
4462;SDS011;2244;50.200;8.220;2024-03-08T05:10:24;54.03;;;22.50;;
4462;SDS011;2244;50.200;8.220;2024-03-08T05:12:51;48.77;;;22.80;;
4462;SDS011;2244;50.200;8.220;2024-03-08T05:15:20;55.20;;;25.13;;
4462;SDS011;2244;50.200;8.220;2024-03-08T05:17:48;53.63;;;23.50;;
4462;SDS011;2244;50.200;8.220;2024-03-08T05:20:16;52.00;;;23.90;;
4462;SDS011;2244;50.200;8.220;2024-03-08T05:22:43;51.97;;;24.23;;
4462;SDS011;2244;50.200;8.220;2024-03-08T05:25:11;49.87;;;22.60;;
4462;SDS011;2244;50.200;8.220;2024-03-08T05:27:40;52.10;;;25.03;;
4462;SDS011;2244;50.200;8.220;2024-03-08T05:30:08;55.70;;;24.57;;
4462;SDS011;2244;50.200;8.220;2024-03-08T05:32:37;51.20;;;23.37;;
4462;SDS011;2244;50.200;8.220;2024-03-08T05:35:05;53.50;;;23.77;;
4462;SDS011;2244;50.200;8.220;2024-03-08T05:37:33;50.00;;;23.40;;
4462;SDS011;2244;50.200;8.220;2024-03-08T05:40:01;52.43;;;24.70;;
4462;SDS011;2244;50.200;8.220;2024-03-08T05:42:29;53.13;;;24.00;;
4462;SDS011;2244;50.200;8.220;2024-03-08T05:44:57;50.87;;;25.13;;
4462;SDS011;2244;50.200;8.220;2024-03-08T05:47:25;53.00;;;25.27;;
4462;SDS011;2244;50.200;8.220;2024-03-08T05:49:54;53.60;;;25.27;;
4462;SDS011;2244;50.200;8.220;2024-03-08T05:52:22;54.97;;;23.77;;
4462;SDS011;2244;50.200;8.220;2024-03-08T05:54:49;52.43;;;25.03;;
4462;SDS011;2244;50.200;8.220;2024-03-08T05:57:17;49.70;;;24.17;;
4462;SDS011;2244;50.200;8.220;2024-03-08T05:59:44;51.60;;;24.40;;
4462;SDS011;2244;50.200;8.220;2024-03-08T06:02:12;54.90;;;26.00;;
4462;SDS011;2244;50.200;8.220;2024-03-08T06:04:41;54.30;;;25.63;;
4462;SDS011;2244;50.200;8.220;2024-03-08T06:07:09;49.90;;;24.13;;
4462;SDS011;2244;50.200;8.220;2024-03-08T06:09:38;52.73;;;25.17;;
4462;SDS011;2244;50.200;8.220;2024-03-08T06:12:06;53.40;;;25.10;;
4462;SDS011;2244;50.200;8.220;2024-03-08T06:14:33;52.50;;;25.37;;
4462;SDS011;2244;50.200;8.220;2024-03-08T06:17:01;50.90;;;23.87;;
4462;SDS011;2244;50.200;8.220;2024-03-08T06:19:28;54.70;;;23.93;;
4462;SDS011;2244;50.200;8.220;2024-03-08T06:21:56;51.90;;;24.27;;
4462;SDS011;2244;50.200;8.220;2024-03-08T06:24:23;52.33;;;25.10;;
4462;SDS011;2244;50.200;8.220;2024-03-08T06:26:51;52.03;;;25.27;;
4462;SDS011;2244;50.200;8.220;2024-03-08T06:29:20;55.60;;;26.50;;
4462;SDS011;2244;50.200;8.220;2024-03-08T06:31:47;51.47;;;24.07;;
4462;SDS011;2244;50.200;8.220;2024-03-08T06:34:15;51.80;;;25.80;;
4462;SDS011;2244;50.200;8.220;2024-03-08T06:36:44;51.67;;;23.87;;
4462;SDS011;2244;50.200;8.220;2024-03-08T06:39:11;53.00;;;25.27;;
4462;SDS011;2244;50.200;8.220;2024-03-08T06:41:39;57.30;;;25.30;;
4462;SDS011;2244;50.200;8.220;2024-03-08T06:44:06;50.50;;;25.40;;
4462;SDS011;2244;50.200;8.220;2024-03-08T06:46:35;51.73;;;24.07;;
4462;SDS011;2244;50.200;8.220;2024-03-08T06:49:04;53.93;;;24.23;;
4462;SDS011;2244;50.200;8.220;2024-03-08T06:51:33;53.70;;;24.97;;
4462;SDS011;2244;50.200;8.220;2024-03-08T06:54:01;53.87;;;25.47;;
4462;SDS011;2244;50.200;8.220;2024-03-08T06:56:30;49.40;;;22.57;;
4462;SDS011;2244;50.200;8.220;2024-03-08T06:58:59;54.37;;;24.87;;
4462;SDS011;2244;50.200;8.220;2024-03-08T07:01:29;52.90;;;25.63;;
4462;SDS011;2244;50.200;8.220;2024-03-08T07:04:01;50.27;;;24.23;;
4462;SDS011;2244;50.200;8.220;2024-03-08T07:06:30;48.80;;;22.80;;
4462;SDS011;2244;50.200;8.220;2024-03-08T07:08:59;52.93;;;24.57;;
4462;SDS011;2244;50.200;8.220;2024-03-08T07:11:27;49.73;;;22.73;;
4462;SDS011;2244;50.200;8.220;2024-03-08T07:13:55;53.77;;;25.70;;
4462;SDS011;2244;50.200;8.220;2024-03-08T07:16:22;46.17;;;22.57;;
4462;SDS011;2244;50.200;8.220;2024-03-08T07:18:50;54.90;;;24.77;;
4462;SDS011;2244;50.200;8.220;2024-03-08T07:21:21;49.30;;;23.10;;
4462;SDS011;2244;50.200;8.220;2024-03-08T07:23:48;50.53;;;24.27;;
4462;SDS011;2244;50.200;8.220;2024-03-08T07:26:30;50.30;;;23.30;;
4462;SDS011;2244;50.200;8.220;2024-03-08T07:28:58;53.50;;;24.93;;
4462;SDS011;2244;50.200;8.220;2024-03-08T07:31:27;47.50;;;22.27;;
4462;SDS011;2244;50.200;8.220;2024-03-08T07:33:56;50.23;;;23.93;;
4462;SDS011;2244;50.200;8.220;2024-03-08T07:36:25;51.97;;;23.53;;
4462;SDS011;2244;50.200;8.220;2024-03-08T07:38:52;51.60;;;24.37;;
4462;SDS011;2244;50.200;8.220;2024-03-08T07:41:20;47.80;;;22.27;;
4462;SDS011;2244;50.200;8.220;2024-03-08T07:43:49;49.00;;;22.23;;
4462;SDS011;2244;50.200;8.220;2024-03-08T07:46:16;47.20;;;22.77;;
4462;SDS011;2244;50.200;8.220;2024-03-08T07:48:45;51.03;;;22.97;;
4462;SDS011;2244;50.200;8.220;2024-03-08T07:51:12;52.13;;;22.20;;
4462;SDS011;2244;50.200;8.220;2024-03-08T07:53:42;46.67;;;22.47;;
4462;SDS011;2244;50.200;8.220;2024-03-08T07:56:10;48.50;;;22.33;;
4462;SDS011;2244;50.200;8.220;2024-03-08T07:58:39;47.23;;;21.60;;
4462;SDS011;2244;50.200;8.220;2024-03-08T08:01:21;48.00;;;21.87;;
4462;SDS011;2244;50.200;8.220;2024-03-08T08:03:46;47.43;;;22.30;;
4462;SDS011;2244;50.200;8.220;2024-03-08T08:06:15;48.20;;;22.80;;
4462;SDS011;2244;50.200;8.220;2024-03-08T08:08:43;49.33;;;22.73;;
4462;SDS011;2244;50.200;8.220;2024-03-08T08:11:10;48.40;;;22.77;;
4462;SDS011;2244;50.200;8.220;2024-03-08T08:13:44;47.53;;;24.20;;
4462;SDS011;2244;50.200;8.220;2024-03-08T08:16:12;52.73;;;21.63;;
4462;SDS011;2244;50.200;8.220;2024-03-08T08:18:40;47.47;;;21.83;;
4462;SDS011;2244;50.200;8.220;2024-03-08T08:21:07;48.80;;;21.83;;
4462;SDS011;2244;50.200;8.220;2024-03-08T08:23:35;46.47;;;21.20;;
4462;SDS011;2244;50.200;8.220;2024-03-08T08:26:02;45.40;;;20.83;;
4462;SDS011;2244;50.200;8.220;2024-03-08T08:28:31;46.37;;;22.67;;
4462;SDS011;2244;50.200;8.220;2024-03-08T08:30:58;45.60;;;21.50;;
4462;SDS011;2244;50.200;8.220;2024-03-08T08:33:26;44.83;;;20.67;;
4462;SDS011;2244;50.200;8.220;2024-03-08T08:35:53;45.23;;;20.77;;
4462;SDS011;2244;50.200;8.220;2024-03-08T08:38:21;43.80;;;20.93;;
4462;SDS011;2244;50.200;8.220;2024-03-08T08:40:49;46.30;;;20.37;;
4462;SDS011;2244;50.200;8.220;2024-03-08T08:43:17;46.27;;;20.33;;
4462;SDS011;2244;50.200;8.220;2024-03-08T08:45:46;49.87;;;22.17;;
4462;SDS011;2244;50.200;8.220;2024-03-08T08:48:15;48.17;;;22.17;;
4462;SDS011;2244;50.200;8.220;2024-03-08T08:50:42;47.60;;;22.27;;
4462;SDS011;2244;50.200;8.220;2024-03-08T08:53:11;44.50;;;20.80;;
4462;SDS011;2244;50.200;8.220;2024-03-08T08:55:39;46.37;;;21.00;;
4462;SDS011;2244;50.200;8.220;2024-03-08T08:58:07;48.83;;;21.50;;
4462;SDS011;2244;50.200;8.220;2024-03-08T09:00:34;44.77;;;20.63;;
4462;SDS011;2244;50.200;8.220;2024-03-08T09:03:02;44.00;;;18.60;;
4462;SDS011;2244;50.200;8.220;2024-03-08T09:05:29;47.03;;;21.90;;
4462;SDS011;2244;50.200;8.220;2024-03-08T09:07:59;46.80;;;20.07;;
4462;SDS011;2244;50.200;8.220;2024-03-08T09:10:27;46.53;;;20.80;;
4462;SDS011;2244;50.200;8.220;2024-03-08T09:12:56;50.23;;;21.67;;
4462;SDS011;2244;50.200;8.220;2024-03-08T09:15:24;47.63;;;20.93;;
4462;SDS011;2244;50.200;8.220;2024-03-08T09:17:53;45.03;;;20.57;;
4462;SDS011;2244;50.200;8.220;2024-03-08T09:20:21;44.50;;;19.23;;
4462;SDS011;2244;50.200;8.220;2024-03-08T09:22:48;48.70;;;19.93;;
4462;SDS011;2244;50.200;8.220;2024-03-08T09:25:15;51.13;;;20.30;;
4462;SDS011;2244;50.200;8.220;2024-03-08T09:27:43;45.77;;;20.90;;
4462;SDS011;2244;50.200;8.220;2024-03-08T09:30:12;45.77;;;19.67;;
4462;SDS011;2244;50.200;8.220;2024-03-08T09:32:41;45.63;;;20.70;;
4462;SDS011;2244;50.200;8.220;2024-03-08T09:35:10;44.90;;;19.60;;
4462;SDS011;2244;50.200;8.220;2024-03-08T09:37:39;45.93;;;21.10;;
4462;SDS011;2244;50.200;8.220;2024-03-08T09:40:06;47.40;;;21.30;;
4462;SDS011;2244;50.200;8.220;2024-03-08T09:42:35;46.83;;;19.43;;
4462;SDS011;2244;50.200;8.220;2024-03-08T09:45:07;46.90;;;21.50;;
4462;SDS011;2244;50.200;8.220;2024-03-08T09:47:34;45.23;;;19.03;;
4462;SDS011;2244;50.200;8.220;2024-03-08T09:50:03;44.20;;;19.80;;
4462;SDS011;2244;50.200;8.220;2024-03-08T09:52:31;41.93;;;19.30;;
4462;SDS011;2244;50.200;8.220;2024-03-08T09:54:59;44.03;;;21.10;;
4462;SDS011;2244;50.200;8.220;2024-03-08T09:57:28;45.07;;;20.60;;
4462;SDS011;2244;50.200;8.220;2024-03-08T09:59:55;43.37;;;19.50;;
4462;SDS011;2244;50.200;8.220;2024-03-08T10:02:23;43.07;;;19.37;;
4462;SDS011;2244;50.200;8.220;2024-03-08T10:04:51;44.30;;;20.40;;
4462;SDS011;2244;50.200;8.220;2024-03-08T10:07:20;45.63;;;20.63;;
4462;SDS011;2244;50.200;8.220;2024-03-08T10:09:48;43.67;;;17.80;;
4462;SDS011;2244;50.200;8.220;2024-03-08T10:12:17;42.90;;;18.53;;
4462;SDS011;2244;50.200;8.220;2024-03-08T10:14:45;44.20;;;18.53;;
4462;SDS011;2244;50.200;8.220;2024-03-08T10:17:13;42.33;;;17.53;;
4462;SDS011;2244;50.200;8.220;2024-03-08T10:19:49;45.20;;;20.40;;
4462;SDS011;2244;50.200;8.220;2024-03-08T10:22:15;43.87;;;19.53;;
4462;SDS011;2244;50.200;8.220;2024-03-08T10:24:40;42.00;;;18.10;;
4462;SDS011;2244;50.200;8.220;2024-03-08T10:27:07;41.90;;;19.33;;
4462;SDS011;2244;50.200;8.220;2024-03-08T10:29:35;46.23;;;19.73;;
4462;SDS011;2244;50.200;8.220;2024-03-08T10:32:05;42.60;;;18.93;;
4462;SDS011;2244;50.200;8.220;2024-03-08T10:34:33;48.23;;;20.50;;
4462;SDS011;2244;50.200;8.220;2024-03-08T10:37:04;46.07;;;19.67;;
4462;SDS011;2244;50.200;8.220;2024-03-08T10:39:35;41.30;;;17.83;;
4462;SDS011;2244;50.200;8.220;2024-03-08T10:42:04;43.53;;;18.30;;
4462;SDS011;2244;50.200;8.220;2024-03-08T10:45:34;41.77;;;18.10;;
4462;SDS011;2244;50.200;8.220;2024-03-08T10:49:41;45.03;;;18.87;;
4462;SDS011;2244;50.200;8.220;2024-03-08T10:52:09;41.23;;;17.80;;
4462;SDS011;2244;50.200;8.220;2024-03-08T10:54:37;41.50;;;17.77;;
4462;SDS011;2244;50.200;8.220;2024-03-08T10:57:09;41.87;;;17.50;;
4462;SDS011;2244;50.200;8.220;2024-03-08T10:59:38;42.50;;;18.63;;
4462;SDS011;2244;50.200;8.220;2024-03-08T11:02:06;39.70;;;15.47;;
4462;SDS011;2244;50.200;8.220;2024-03-08T11:04:33;39.60;;;16.83;;
4462;SDS011;2244;50.200;8.220;2024-03-08T11:07:03;41.10;;;16.83;;
4462;SDS011;2244;50.200;8.220;2024-03-08T11:09:36;41.57;;;16.90;;
4462;SDS011;2244;50.200;8.220;2024-03-08T11:14:53;37.50;;;15.87;;
4462;SDS011;2244;50.200;8.220;2024-03-08T11:20:04;38.47;;;16.30;;
4462;SDS011;2244;50.200;8.220;2024-03-08T11:22:33;45.87;;;14.80;;
4462;SDS011;2244;50.200;8.220;2024-03-08T11:25:04;40.00;;;16.03;;
4462;SDS011;2244;50.200;8.220;2024-03-08T11:27:33;39.20;;;15.40;;
4462;SDS011;2244;50.200;8.220;2024-03-08T11:30:02;39.73;;;15.67;;
4462;SDS011;2244;50.200;8.220;2024-03-08T11:32:45;37.87;;;14.93;;
4462;SDS011;2244;50.200;8.220;2024-03-08T11:35:17;38.63;;;14.57;;
4462;SDS011;2244;50.200;8.220;2024-03-08T11:37:39;38.20;;;14.93;;
4462;SDS011;2244;50.200;8.220;2024-03-08T11:40:11;37.17;;;15.20;;
4462;SDS011;2244;50.200;8.220;2024-03-08T11:42:35;37.67;;;14.00;;
4462;SDS011;2244;50.200;8.220;2024-03-08T11:45:07;39.00;;;15.33;;
4462;SDS011;2244;50.200;8.220;2024-03-08T11:47:34;39.00;;;16.00;;
4462;SDS011;2244;50.200;8.220;2024-03-08T11:50:02;38.27;;;15.10;;
4462;SDS011;2244;50.200;8.220;2024-03-08T11:52:29;36.13;;;14.20;;
4462;SDS011;2244;50.200;8.220;2024-03-08T11:54:58;37.53;;;14.67;;
4462;SDS011;2244;50.200;8.220;2024-03-08T11:57:25;36.50;;;13.43;;
4462;SDS011;2244;50.200;8.220;2024-03-08T11:59:53;36.97;;;14.17;;
4462;SDS011;2244;50.200;8.220;2024-03-08T12:02:24;36.20;;;14.03;;
4462;SDS011;2244;50.200;8.220;2024-03-08T12:05:00;37.83;;;14.13;;
4462;SDS011;2244;50.200;8.220;2024-03-08T12:07:29;38.13;;;14.43;;
4462;SDS011;2244;50.200;8.220;2024-03-08T12:10:17;38.50;;;15.77;;
4462;SDS011;2244;50.200;8.220;2024-03-08T12:12:52;38.23;;;14.37;;
4462;SDS011;2244;50.200;8.220;2024-03-08T12:15:20;36.53;;;14.47;;
4462;SDS011;2244;50.200;8.220;2024-03-08T12:17:49;40.33;;;15.27;;
4462;SDS011;2244;50.200;8.220;2024-03-08T12:20:18;37.47;;;14.80;;
4462;SDS011;2244;50.200;8.220;2024-03-08T12:22:47;37.20;;;14.40;;
4462;SDS011;2244;50.200;8.220;2024-03-08T12:25:15;37.17;;;14.30;;
4462;SDS011;2244;50.200;8.220;2024-03-08T12:27:43;36.93;;;13.37;;
4462;SDS011;2244;50.200;8.220;2024-03-08T12:32:50;37.33;;;13.83;;
4462;SDS011;2244;50.200;8.220;2024-03-08T12:35:20;40.33;;;13.50;;
4462;SDS011;2244;50.200;8.220;2024-03-08T12:37:50;37.43;;;14.73;;
4462;SDS011;2244;50.200;8.220;2024-03-08T12:40:19;34.37;;;12.90;;
4462;SDS011;2244;50.200;8.220;2024-03-08T12:42:48;37.27;;;13.77;;
4462;SDS011;2244;50.200;8.220;2024-03-08T12:45:16;37.70;;;14.60;;
4462;SDS011;2244;50.200;8.220;2024-03-08T12:47:43;38.20;;;14.63;;
4462;SDS011;2244;50.200;8.220;2024-03-08T12:50:10;36.50;;;14.87;;
4462;SDS011;2244;50.200;8.220;2024-03-08T12:52:38;36.80;;;14.60;;
4462;SDS011;2244;50.200;8.220;2024-03-08T12:55:05;36.53;;;14.37;;
4462;SDS011;2244;50.200;8.220;2024-03-08T12:57:34;33.57;;;13.20;;
4462;SDS011;2244;50.200;8.220;2024-03-08T13:00:02;34.40;;;13.77;;
4462;SDS011;2244;50.200;8.220;2024-03-08T13:02:30;37.03;;;14.47;;
4462;SDS011;2244;50.200;8.220;2024-03-08T13:05:01;35.97;;;13.40;;
4462;SDS011;2244;50.200;8.220;2024-03-08T13:07:30;36.33;;;13.60;;
4462;SDS011;2244;50.200;8.220;2024-03-08T13:09:58;34.70;;;13.60;;
4462;SDS011;2244;50.200;8.220;2024-03-08T13:12:26;34.10;;;13.17;;
4462;SDS011;2244;50.200;8.220;2024-03-08T13:14:56;35.53;;;14.23;;
4462;SDS011;2244;50.200;8.220;2024-03-08T13:17:24;35.60;;;13.70;;
4462;SDS011;2244;50.200;8.220;2024-03-08T13:19:52;34.37;;;13.50;;
4462;SDS011;2244;50.200;8.220;2024-03-08T13:22:21;37.23;;;14.87;;
4462;SDS011;2244;50.200;8.220;2024-03-08T13:24:49;47.00;;;32.20;;
4462;SDS011;2244;50.200;8.220;2024-03-08T13:27:20;37.60;;;15.70;;
4462;SDS011;2244;50.200;8.220;2024-03-08T13:29:48;40.40;;;21.93;;
4462;SDS011;2244;50.200;8.220;2024-03-08T13:32:16;35.63;;;14.67;;
4462;SDS011;2244;50.200;8.220;2024-03-08T13:34:43;38.60;;;15.43;;
4462;SDS011;2244;50.200;8.220;2024-03-08T13:37:14;37.47;;;15.87;;
4462;SDS011;2244;50.200;8.220;2024-03-08T13:39:43;38.70;;;15.77;;
4462;SDS011;2244;50.200;8.220;2024-03-08T13:42:11;37.67;;;15.60;;
4462;SDS011;2244;50.200;8.220;2024-03-08T13:44:42;37.10;;;16.23;;
4462;SDS011;2244;50.200;8.220;2024-03-08T13:47:08;38.13;;;15.37;;
4462;SDS011;2244;50.200;8.220;2024-03-08T13:49:37;45.43;;;15.63;;
4462;SDS011;2244;50.200;8.220;2024-03-08T13:52:05;39.00;;;16.90;;
4462;SDS011;2244;50.200;8.220;2024-03-08T13:54:34;35.70;;;14.43;;
4462;SDS011;2244;50.200;8.220;2024-03-08T13:57:02;41.43;;;17.60;;
4462;SDS011;2244;50.200;8.220;2024-03-08T13:59:31;39.30;;;17.33;;
4462;SDS011;2244;50.200;8.220;2024-03-08T14:01:59;36.10;;;14.20;;
4462;SDS011;2244;50.200;8.220;2024-03-08T14:04:28;38.20;;;16.07;;
4462;SDS011;2244;50.200;8.220;2024-03-08T14:06:56;39.80;;;15.27;;
4462;SDS011;2244;50.200;8.220;2024-03-08T14:09:28;37.87;;;14.53;;
4462;SDS011;2244;50.200;8.220;2024-03-08T14:11:55;38.10;;;16.13;;
4462;SDS011;2244;50.200;8.220;2024-03-08T14:14:23;43.70;;;23.10;;
4462;SDS011;2244;50.200;8.220;2024-03-08T14:16:50;41.17;;;18.80;;
4462;SDS011;2244;50.200;8.220;2024-03-08T14:19:22;37.70;;;15.97;;
4462;SDS011;2244;50.200;8.220;2024-03-08T14:21:50;37.90;;;15.87;;
4462;SDS011;2244;50.200;8.220;2024-03-08T14:24:19;40.03;;;16.57;;
4462;SDS011;2244;50.200;8.220;2024-03-08T14:26:48;38.20;;;16.03;;
4462;SDS011;2244;50.200;8.220;2024-03-08T14:29:15;38.67;;;16.17;;
4462;SDS011;2244;50.200;8.220;2024-03-08T14:31:44;49.30;;;31.90;;
4462;SDS011;2244;50.200;8.220;2024-03-08T14:34:12;40.37;;;15.70;;
4462;SDS011;2244;50.200;8.220;2024-03-08T14:36:41;42.77;;;18.80;;
4462;SDS011;2244;50.200;8.220;2024-03-08T14:39:08;39.43;;;14.93;;
4462;SDS011;2244;50.200;8.220;2024-03-08T14:41:36;40.53;;;17.50;;
4462;SDS011;2244;50.200;8.220;2024-03-08T14:44:03;41.80;;;15.93;;
4462;SDS011;2244;50.200;8.220;2024-03-08T14:46:31;42.77;;;24.50;;
4462;SDS011;2244;50.200;8.220;2024-03-08T14:48:58;40.17;;;17.70;;
4462;SDS011;2244;50.200;8.220;2024-03-08T14:51:26;39.63;;;16.90;;
4462;SDS011;2244;50.200;8.220;2024-03-08T14:53:54;40.40;;;17.80;;
4462;SDS011;2244;50.200;8.220;2024-03-08T14:56:21;49.33;;;37.07;;
4462;SDS011;2244;50.200;8.220;2024-03-08T14:58:49;39.13;;;17.60;;
4462;SDS011;2244;50.200;8.220;2024-03-08T15:01:18;41.13;;;17.40;;
4462;SDS011;2244;50.200;8.220;2024-03-08T15:03:50;42.83;;;18.70;;
4462;SDS011;2244;50.200;8.220;2024-03-08T15:06:18;44.97;;;20.50;;